Time;durP1;ratioP1;P1;durP2;ratioP2;P2;SDS_P1;SDS_P2;PMS_P1;PMS_P2;Temp;Humidity;BMP_temperature;BMP_pressure;BME280_temperature;BME280_humidity;BME280_pressure;Samples;Min_cycle;Max_cycle;Signal;HPM_P1;HPM_P2
2022/04/04 00:00:45;;;;;;;5.47;3.03;;;;;;;;;;5092887;28;20149;-76
2022/04/04 00:03:12;;;;;;;6.10;3.40;;;;;;;;;;5092921;28;20103;-76
2022/04/04 00:05:38;;;;;;;4.13;2.88;;;;;;;;;;5103646;28;20035;-75
2022/04/04 00:08:04;;;;;;;4.03;3.13;;;;;;;;;;5113447;28;20023;-76
2022/04/04 00:10:30;;;;;;;4.07;2.70;;;;;;;;;;5113052;28;20035;-74
2022/04/04 00:12:56;;;;;;;4.15;2.97;;;;;;;;;;5112259;28;20034;-75
2022/04/04 00:15:22;;;;;;;3.95;2.72;;;;;;;;;;5113012;28;20089;-75
2022/04/04 00:17:49;;;;;;;4.93;3.20;;;;;;;;;;5112695;28;20051;-75
2022/04/04 00:20:15;;;;;;;5.43;3.10;;;;;;;;;;5112598;28;20110;-74
2022/04/04 00:22:41;;;;;;;6.07;3.00;;;;;;;;;;5113091;28;20031;-74
2022/04/04 00:25:08;;;;;;;4.15;2.78;;;;;;;;;;5112935;28;20058;-75
2022/04/04 00:27:34;;;;;;;4.25;2.85;;;;;;;;;;5112869;28;20077;-74
2022/04/04 00:30:00;;;;;;;4.38;2.47;;;;;;;;;;5111583;28;20031;-74
2022/04/04 00:32:26;;;;;;;5.05;3.10;;;;;;;;;;5112822;28;20024;-76
2022/04/04 00:34:52;;;;;;;4.47;2.72;;;;;;;;;;5111772;28;20076;-76
2022/04/04 00:37:18;;;;;;;3.83;2.67;;;;;;;;;;5112176;28;20028;-75
2022/04/04 00:39:44;;;;;;;4.97;3.05;;;;;;;;;;5111162;28;20058;-76
2022/04/04 00:42:14;;;;;;;5.15;3.45;;;;;;;;;;5111281;28;20055;-76
2022/04/04 00:44:40;;;;;;;4.20;2.78;;;;;;;;;;5112247;28;20544;-76
2022/04/04 00:47:07;;;;;;;4.28;2.70;;;;;;;;;;5112453;28;20023;-76
2022/04/04 00:49:33;;;;;;;3.83;2.50;;;;;;;;;;5111931;28;20032;-75
2022/04/04 00:51:59;;;;;;;3.67;2.55;;;;;;;;;;5112192;28;20027;-75
2022/04/04 00:54:25;;;;;;;4.65;3.03;;;;;;;;;;5111507;28;20551;-76
2022/04/04 00:56:52;;;;;;;5.57;2.45;;;;;;;;;;5112114;28;20047;-75
2022/04/04 00:59:18;;;;;;;4.00;2.58;;;;;;;;;;5112442;28;20176;-74
2022/04/04 01:01:44;;;;;;;4.75;2.63;;;;;;;;;;5110845;28;20020;-75
2022/04/04 01:04:12;;;;;;;4.28;2.65;;;;;;;;;;5112240;28;20026;-75
2022/04/04 01:06:39;;;;;;;4.57;2.90;;;;;;;;;;5110331;28;20077;-74
2022/04/04 01:09:05;;;;;;;4.93;3.08;;;;;;;;;;5112002;28;20077;-75
2022/04/04 01:11:32;;;;;;;5.03;2.78;;;;;;;;;;5111363;28;20059;-76
2022/04/04 01:13:58;;;;;;;4.13;2.88;;;;;;;;;;5110481;28;20452;-76
2022/04/04 01:16:24;;;;;;;4.90;3.10;;;;;;;;;;5110651;28;20028;-76
2022/04/04 01:18:50;;;;;;;3.90;2.47;;;;;;;;;;5111788;28;20028;-76
2022/04/04 01:21:19;;;;;;;3.58;2.55;;;;;;;;;;5111951;28;20023;-77
2022/04/04 01:23:49;;;;;;;9.10;2.53;;;;;;;;;;5111607;28;20033;-76
2022/04/04 01:26:15;;;;;;;3.00;2.03;;;;;;;;;;5111725;28;20498;-74
2022/04/04 01:28:41;;;;;;;4.78;2.33;;;;;;;;;;5111054;28;20437;-76
2022/04/04 01:31:07;;;;;;;5.72;2.40;;;;;;;;;;5111573;28;20024;-74
2022/04/04 01:33:34;;;;;;;4.03;2.38;;;;;;;;;;5111629;28;20031;-76
2022/04/04 01:36:00;;;;;;;4.30;2.60;;;;;;;;;;5111926;28;20028;-75
2022/04/04 01:38:26;;;;;;;3.95;2.25;;;;;;;;;;5112000;28;20019;-76
2022/04/04 01:40:52;;;;;;;4.88;2.45;;;;;;;;;;5111550;28;20026;-76
2022/04/04 01:43:19;;;;;;;3.83;2.28;;;;;;;;;;5110195;28;20495;-75
2022/04/04 01:48:37;;;;;;;3.38;2.15;;;;;;;;;;5111754;28;20061;-76
2022/04/04 01:51:03;;;;;;;4.10;2.47;;;;;;;;;;5111466;28;20024;-75
2022/04/04 01:53:31;;;;;;;3.45;2.17;;;;;;;;;;5111741;28;20027;-76
2022/04/04 01:55:59;;;;;;;3.25;2.22;;;;;;;;;;5112018;28;20030;-75
2022/04/04 01:58:25;;;;;;;5.20;2.33;;;;;;;;;;5111683;28;20026;-75
2022/04/04 02:00:53;;;;;;;3.50;2.13;;;;;;;;;;5111213;28;20097;-75
2022/04/04 02:03:19;;;;;;;3.65;2.10;;;;;;;;;;5111372;28;20016;-74
2022/04/04 02:05:45;;;;;;;4.53;2.40;;;;;;;;;;5111303;28;20080;-73
2022/04/04 02:08:11;;;;;;;3.90;2.80;;;;;;;;;;5109948;28;20024;-76
2022/04/04 02:10:38;;;;;;;3.50;2.13;;;;;;;;;;5111047;28;20115;-75
2022/04/04 02:13:04;;;;;;;4.07;2.30;;;;;;;;;;5110165;28;20536;-75
2022/04/04 02:15:30;;;;;;;3.50;1.75;;;;;;;;;;5098923;28;20028;-74
2022/04/04 02:17:56;;;;;;;3.10;2.17;;;;;;;;;;5090013;28;20020;-75
2022/04/04 02:20:22;;;;;;;3.42;1.77;;;;;;;;;;5111162;28;20509;-74
2022/04/04 02:22:49;;;;;;;4.03;2.13;;;;;;;;;;5111128;28;20023;-74
2022/04/04 02:25:15;;;;;;;6.45;1.88;;;;;;;;;;5111018;28;20020;-74
2022/04/04 02:27:41;;;;;;;4.05;2.30;;;;;;;;;;5111106;28;20081;-74
2022/04/04 02:30:07;;;;;;;3.88;1.80;;;;;;;;;;5111313;28;20572;-75
2022/04/04 02:32:33;;;;;;;3.25;1.98;;;;;;;;;;5110961;28;20483;-76
2022/04/04 02:35:00;;;;;;;3.17;2.05;;;;;;;;;;5109853;28;20052;-75
2022/04/04 02:37:26;;;;;;;3.72;1.70;;;;;;;;;;5111340;28;20027;-75
2022/04/04 02:39:52;;;;;;;2.92;1.48;;;;;;;;;;5110660;28;20024;-76
2022/04/04 02:42:18;;;;;;;3.25;1.95;;;;;;;;;;5109932;28;20069;-76
2022/04/04 02:44:44;;;;;;;3.17;1.50;;;;;;;;;;5110914;28;20054;-76
2022/04/04 02:47:10;;;;;;;2.47;1.42;;;;;;;;;;5111182;28;20080;-76
2022/04/04 02:49:36;;;;;;;2.53;1.77;;;;;;;;;;5110404;28;20039;-76
2022/04/04 02:52:02;;;;;;;3.13;1.83;;;;;;;;;;5109491;28;20019;-75
2022/04/04 02:54:28;;;;;;;3.33;1.92;;;;;;;;;;5111030;28;20024;-75
2022/04/04 02:56:54;;;;;;;2.65;1.55;;;;;;;;;;5111008;28;20027;-76
2022/04/04 02:59:20;;;;;;;3.55;1.92;;;;;;;;;;5113353;28;20142;-74
2022/04/04 03:01:48;;;;;;;3.45;1.83;;;;;;;;;;5114561;28;20070;-76
2022/04/04 03:04:15;;;;;;;4.45;1.85;;;;;;;;;;5113134;28;20053;-75
2022/04/04 03:06:41;;;;;;;3.40;1.77;;;;;;;;;;5113893;28;20145;-74
2022/04/04 03:09:07;;;;;;;2.83;1.65;;;;;;;;;;5114322;28;20062;-76
2022/04/04 03:11:33;;;;;;;3.28;1.77;;;;;;;;;;5114189;28;20027;-74
2022/04/04 03:13:59;;;;;;;2.75;1.65;;;;;;;;;;5114768;28;20016;-75
2022/04/04 03:16:25;;;;;;;4.30;1.80;;;;;;;;;;5114499;28;20070;-75
2022/04/04 03:18:54;;;;;;;2.88;1.60;;;;;;;;;;5114137;28;20024;-76
2022/04/04 03:21:20;;;;;;;2.83;2.00;;;;;;;;;;5112713;28;20055;-75
2022/04/04 03:23:46;;;;;;;3.33;1.75;;;;;;;;;;5113946;28;20035;-76
2022/04/04 03:26:12;;;;;;;1.98;1.35;;;;;;;;;;5114243;28;20041;-76
2022/04/04 03:28:39;;;;;;;2.72;1.42;;;;;;;;;;5112453;28;20055;-76
2022/04/04 03:31:05;;;;;;;3.85;1.40;;;;;;;;;;5113880;28;20030;-75
2022/04/04 03:33:31;;;;;;;3.05;1.45;;;;;;;;;;5114028;28;20032;-75
2022/04/04 03:36:01;;;;;;;2.67;1.48;;;;;;;;;;5114290;28;20429;-76
2022/04/04 03:38:27;;;;;;;3.30;1.58;;;;;;;;;;5113984;28;20080;-76
2022/04/04 03:40:53;;;;;;;3.53;1.50;;;;;;;;;;5113680;28;20020;-75
2022/04/04 03:43:20;;;;;;;3.08;1.40;;;;;;;;;;5113724;28;20016;-75
2022/04/04 03:45:46;;;;;;;4.55;1.63;;;;;;;;;;5111812;28;20087;-75
2022/04/04 03:48:12;;;;;;;2.92;1.50;;;;;;;;;;5112163;28;20528;-74
2022/04/04 03:50:39;;;;;;;2.97;1.40;;;;;;;;;;5112082;28;20039;-74
2022/04/04 03:53:05;;;;;;;2.28;1.42;;;;;;;;;;5113650;28;20069;-75
2022/04/04 03:55:32;;;;;;;2.85;1.50;;;;;;;;;;5111927;28;20034;-74
2022/04/04 03:57:59;;;;;;;1.70;1.15;;;;;;;;;;5113712;28;20058;-75
2022/04/04 04:00:25;;;;;;;2.20;1.10;;;;;;;;;;5113192;28;20031;-75
2022/04/04 04:02:52;;;;;;;3.00;1.33;;;;;;;;;;5113049;28;20441;-74
2022/04/04 04:05:18;;;;;;;4.40;1.48;;;;;;;;;;5113042;28;20479;-75
2022/04/04 04:07:44;;;;;;;3.10;1.52;;;;;;;;;;5111980;28;20027;-74
2022/04/04 04:10:11;;;;;;;2.42;1.30;;;;;;;;;;5113171;28;20445;-74
2022/04/04 04:12:39;;;;;;;2.67;1.50;;;;;;;;;;5112930;28;20046;-74
2022/04/04 04:15:05;;;;;;;2.50;1.35;;;;;;;;;;5113448;28;20026;-74
2022/04/04 04:17:31;;;;;;;2.47;1.40;;;;;;;;;;5112838;28;20053;-75
2022/04/04 04:22:42;;;;;;;2.75;1.50;;;;;;;;;;5113065;28;20029;-75
2022/04/04 04:25:09;;;;;;;2.38;1.30;;;;;;;;;;5113028;28;20462;-75
2022/04/04 04:27:35;;;;;;;3.90;1.27;;;;;;;;;;5112092;28;20107;-75
2022/04/04 04:30:01;;;;;;;3.03;1.27;;;;;;;;;;5112889;28;20037;-74
2022/04/04 04:32:27;;;;;;;3.08;1.05;;;;;;;;;;5113203;28;20031;-74
2022/04/04 04:34:53;;;;;;;2.05;1.13;;;;;;;;;;5112649;28;20077;-75
2022/04/04 04:37:23;;;;;;;2.97;1.50;;;;;;;;;;5112816;28;20024;-74
2022/04/04 04:39:49;;;;;;;3.10;1.27;;;;;;;;;;5111798;28;20034;-75
2022/04/04 04:42:16;;;;;;;2.17;1.40;;;;;;;;;;5092436;28;20032;-76
2022/04/04 04:44:42;;;;;;;3.15;1.20;;;;;;;;;;5092057;28;20050;-76
2022/04/04 04:47:09;;;;;;;2.83;1.02;;;;;;;;;;5092119;28;20488;-74
2022/04/04 04:49:35;;;;;;;2.40;1.20;;;;;;;;;;5091720;28;20036;-75
2022/04/04 04:52:01;;;;;;;2.00;1.20;;;;;;;;;;5092039;28;20024;-75
2022/04/04 04:54:28;;;;;;;3.33;1.35;;;;;;;;;;5091759;28;20116;-75
2022/04/04 04:56:54;;;;;;;1.98;1.15;;;;;;;;;;5112075;28;20076;-75
2022/04/04 04:59:20;;;;;;;2.63;1.10;;;;;;;;;;5112352;28;20027;-75
2022/04/04 05:01:46;;;;;;;1.92;1.00;;;;;;;;;;5094099;28;20073;-75
2022/04/04 05:04:12;;;;;;;2.35;1.30;;;;;;;;;;5112249;28;20399;-74
2022/04/04 05:06:39;;;;;;;3.05;1.20;;;;;;;;;;5112164;28;20028;-76
2022/04/04 05:09:05;;;;;;;2.35;0.98;;;;;;;;;;5112043;28;20038;-76
2022/04/04 05:11:31;;;;;;;2.88;1.20;;;;;;;;;;5094137;28;20028;-75
2022/04/04 05:14:00;;;;;;;2.40;1.33;;;;;;;;;;5112169;28;20024;-74
2022/04/04 05:16:28;;;;;;;2.67;1.20;;;;;;;;;;5111089;28;20019;-74
2022/04/04 05:18:56;;;;;;;2.95;1.35;;;;;;;;;;5111476;28;20094;-74
2022/04/04 05:21:22;;;;;;;1.80;0.90;;;;;;;;;;5111987;28;20039;-74
2022/04/04 05:23:48;;;;;;;2.00;1.10;;;;;;;;;;5110447;28;20031;-75
2022/04/04 05:26:14;;;;;;;2.58;1.17;;;;;;;;;;5109799;28;20027;-74
2022/04/04 05:28:40;;;;;;;1.75;1.05;;;;;;;;;;5109922;28;20387;-73
2022/04/04 05:31:06;;;;;;;2.33;1.17;;;;;;;;;;5107516;28;20084;-76
2022/04/04 05:33:32;;;;;;;5.03;1.30;;;;;;;;;;5111040;28;20024;-76
2022/04/04 05:35:58;;;;;;;3.35;1.65;;;;;;;;;;5110607;28;20043;-75
2022/04/04 05:38:25;;;;;;;4.15;1.33;;;;;;;;;;5111937;28;20020;-75
2022/04/04 05:40:51;;;;;;;2.40;1.40;;;;;;;;;;5111658;28;20030;-75
2022/04/04 05:43:18;;;;;;;1.90;1.10;;;;;;;;;;5109206;28;20053;-75
2022/04/04 05:45:44;;;;;;;2.83;1.48;;;;;;;;;;5111469;28;20024;-76
2022/04/04 05:48:10;;;;;;;1.95;1.13;;;;;;;;;;5111364;28;20024;-74
2022/04/04 05:50:36;;;;;;;2.38;1.27;;;;;;;;;;5109925;28;20495;-74
2022/04/04 05:53:02;;;;;;;2.67;1.42;;;;;;;;;;5110081;28;20501;-74
2022/04/04 05:55:29;;;;;;;4.85;1.38;;;;;;;;;;5111871;28;20514;-74
2022/04/04 05:57:55;;;;;;;3.78;2.85;;;;;;;;;;5111393;28;20028;-74
2022/04/04 06:00:21;;;;;;;12.63;6.55;;;;;;;;;;5111653;28;20039;-73
2022/04/04 06:02:48;;;;;;;8.90;6.22;;;;;;;;;;5109870;28;20027;-74
2022/04/04 06:05:14;;;;;;;10.35;6.80;;;;;;;;;;5111528;28;20024;-74
2022/04/04 06:07:41;;;;;;;8.48;5.80;;;;;;;;;;5109980;28;20439;-74
2022/04/04 06:10:08;;;;;;;10.65;5.93;;;;;;;;;;5097453;28;20523;-73
2022/04/04 06:12:35;;;;;;;8.70;5.43;;;;;;;;;;5089476;28;20081;-74
2022/04/04 06:15:01;;;;;;;7.53;5.20;;;;;;;;;;5110335;28;20036;-74
2022/04/04 06:17:27;;;;;;;7.78;4.25;;;;;;;;;;5110449;28;20024;-74
2022/04/04 06:19:55;;;;;;;7.00;4.43;;;;;;;;;;5109750;28;20046;-74
2022/04/04 06:22:22;;;;;;;7.75;4.22;;;;;;;;;;5110812;28;20023;-73
2022/04/04 06:24:49;;;;;;;6.60;3.90;;;;;;;;;;5110438;28;20072;-73
2022/04/04 06:27:18;;;;;;;8.15;4.03;;;;;;;;;;5111310;28;20032;-73
2022/04/04 06:29:46;;;;;;;5.05;3.40;;;;;;;;;;5111165;28;20123;-73
2022/04/04 06:32:12;;;;;;;6.25;3.70;;;;;;;;;;5113455;28;20020;-73
2022/04/04 06:34:40;;;;;;;5.85;3.15;;;;;;;;;;5114919;28;20107;-73
2022/04/04 06:37:09;;;;;;;4.80;2.80;;;;;;;;;;5114676;28;20463;-72
2022/04/04 06:39:36;;;;;;;4.93;2.95;;;;;;;;;;5114786;28;20020;-73
2022/04/04 06:42:02;;;;;;;5.30;3.42;;;;;;;;;;5114933;28;20024;-73
2022/04/04 06:44:28;;;;;;;4.50;2.65;;;;;;;;;;5113959;28;20024;-73
2022/04/04 06:46:56;;;;;;;6.22;2.85;;;;;;;;;;5114758;27;20027;-75
2022/04/04 06:49:22;;;;;;;7.35;2.60;;;;;;;;;;5102806;28;20502;-73
2022/04/04 06:51:51;;;;;;;4.90;2.13;;;;;;;;;;5093990;28;20160;-74
2022/04/04 06:54:18;;;;;;;6.53;2.55;;;;;;;;;;5094463;28;20031;-75
2022/04/04 06:56:46;;;;;;;3.88;2.78;;;;;;;;;;5094390;28;20024;-75
2022/04/04 06:59:12;;;;;;;6.00;2.80;;;;;;;;;;5109241;28;20039;-76
2022/04/04 07:01:38;;;;;;;4.05;3.10;;;;;;;;;;5112410;28;20498;-75
2022/04/04 07:04:05;;;;;;;6.95;2.72;;;;;;;;;;5114476;28;20028;-75
2022/04/04 07:06:31;;;;;;;5.50;2.55;;;;;;;;;;5110523;28;20027;-73
2022/04/04 07:08:57;;;;;;;5.43;2.67;;;;;;;;;;5096806;28;20036;-73
2022/04/04 07:11:23;;;;;;;3.33;2.20;;;;;;;;;;5102541;28;20491;-73
2022/04/04 07:13:49;;;;;;;8.27;2.47;;;;;;;;;;5093755;28;20035;-72
2022/04/04 07:16:18;;;;;;;5.88;2.20;;;;;;;;;;5103038;28;20038;-74
2022/04/04 07:18:45;;;;;;;5.05;2.53;;;;;;;;;;5113841;28;20026;-74
2022/04/04 07:21:11;;;;;;;6.57;2.80;;;;;;;;;;5113979;28;20031;-74
2022/04/04 07:23:37;;;;;;;7.78;2.17;;;;;;;;;;5114044;28;20091;-74
2022/04/04 07:26:03;;;;;;;6.10;2.63;;;;;;;;;;5113766;28;20463;-74
2022/04/04 07:28:29;;;;;;;3.17;2.13;;;;;;;;;;5114531;28;20028;-74
2022/04/04 07:30:55;;;;;;;3.92;2.22;;;;;;;;;;5112525;28;20104;-74
2022/04/04 07:33:21;;;;;;;3.92;2.30;;;;;;;;;;5112458;28;20421;-73
2022/04/04 07:35:47;;;;;;;3.97;2.20;;;;;;;;;;5113857;28;20028;-73
2022/04/04 07:38:13;;;;;;;4.05;2.03;;;;;;;;;;5114066;28;20081;-74
2022/04/04 07:40:40;;;;;;;4.72;2.13;;;;;;;;;;5112490;28;20027;-74
2022/04/04 07:43:06;;;;;;;6.30;2.05;;;;;;;;;;5113694;28;20057;-74
2022/04/04 07:45:32;;;;;;;4.20;2.00;;;;;;;;;;5110806;28;20514;-76
2022/04/04 07:47:59;;;;;;;5.38;2.28;;;;;;;;;;5113671;28;20031;-74
2022/04/04 07:50:25;;;;;;;4.10;2.05;;;;;;;;;;5113034;28;20073;-74
2022/04/04 07:52:51;;;;;;;3.17;1.75;;;;;;;;;;5112175;28;20081;-74
2022/04/04 07:55:17;;;;;;;5.57;2.65;;;;;;;;;;5111821;28;20023;-74
2022/04/04 07:57:43;;;;;;;2.95;1.83;;;;;;;;;;5104321;28;20023;-75
2022/04/04 08:00:11;;;;;;;3.65;1.60;;;;;;;;;;5113471;28;20019;-74
2022/04/04 08:02:38;;;;;;;4.18;2.00;;;;;;;;;;5113357;28;20073;-74
2022/04/04 08:05:04;;;;;;;3.45;1.65;;;;;;;;;;5113522;27;20161;-74
2022/04/04 08:07:30;;;;;;;4.60;1.80;;;;;;;;;;5111915;28;20020;-74
2022/04/04 08:09:56;;;;;;;3.15;1.63;;;;;;;;;;5113764;28;20032;-74
2022/04/04 08:12:29;;;;;;;3.00;1.75;;;;;;;;;;5113046;28;20067;-74
2022/04/04 08:14:55;;;;;;;3.33;1.90;;;;;;;;;;5111821;28;20032;-74
2022/04/04 08:17:21;;;;;;;5.63;1.92;;;;;;;;;;5110043;28;20031;-74
2022/04/04 08:19:50;;;;;;;3.00;1.50;;;;;;;;;;5112694;28;20475;-74
2022/04/04 08:22:16;;;;;;;3.58;1.60;;;;;;;;;;5113116;28;20024;-75
2022/04/04 08:24:42;;;;;;;4.70;2.05;;;;;;;;;;5107766;28;20032;-74
2022/04/04 08:27:09;;;;;;;2.10;1.23;;;;;;;;;;5091337;28;20039;-74
2022/04/04 08:29:36;;;;;;;3.67;1.60;;;;;;;;;;5099756;28;20082;-74
2022/04/04 08:32:02;;;;;;;4.55;1.77;;;;;;;;;;5112575;28;20019;-74
2022/04/04 08:34:28;;;;;;;2.70;1.58;;;;;;;;;;5112601;28;20055;-74
2022/04/04 08:36:54;;;;;;;2.53;1.33;;;;;;;;;;5093901;28;20107;-75
2022/04/04 08:39:20;;;;;;;2.38;1.63;;;;;;;;;;5100113;28;20035;-74
2022/04/04 08:41:46;;;;;;;4.07;1.67;;;;;;;;;;5111313;28;20489;-74
2022/04/04 08:44:14;;;;;;;3.60;1.67;;;;;;;;;;5112754;28;20031;-74
2022/04/04 08:46:41;;;;;;;4.18;1.63;;;;;;;;;;5112357;28;20024;-74
2022/04/04 08:49:08;;;;;;;2.35;1.35;;;;;;;;;;5110951;28;20031;-74
2022/04/04 08:51:34;;;;;;;2.67;1.38;;;;;;;;;;5112210;28;20034;-73
2022/04/04 08:54:01;;;;;;;3.17;1.52;;;;;;;;;;5111935;28;20490;-73
2022/04/04 08:56:27;;;;;;;3.85;1.33;;;;;;;;;;5112769;28;20030;-74
2022/04/04 08:58:54;;;;;;;3.50;1.60;;;;;;;;;;5112017;28;20020;-75
2022/04/04 09:01:21;;;;;;;3.85;1.63;;;;;;;;;;5112448;28;20031;-74
2022/04/04 09:04:02;;;;;;;1.88;1.38;;;;;;;;;;5110640;28;20020;-74
2022/04/04 09:06:28;;;;;;;2.42;1.20;;;;;;;;;;5112331;28;20027;-74
2022/04/04 09:08:56;;;;;;;2.40;1.40;;;;;;;;;;5110528;28;20020;-74
2022/04/04 09:11:22;;;;;;;2.78;1.45;;;;;;;;;;5093313;28;20016;-74
2022/04/04 09:14:09;;;;;;;4.65;1.70;;;;;;;;;;5089972;28;20047;-74
2022/04/04 09:16:34;;;;;;;;;;;;;;;;;;5092166;28;20024;-74
2022/04/04 09:19:00;;;;;;;4.55;1.90;;;;;;;;;;5091659;28;19904;-74
2022/04/04 09:21:28;;;;;;;2.70;1.50;;;;;;;;;;5106197;28;20460;-74
2022/04/04 09:23:55;;;;;;;3.20;1.33;;;;;;;;;;5110693;28;20027;-73
2022/04/04 09:26:31;;;;;;;3.83;1.70;;;;;;;;;;5110611;28;20028;-74
2022/04/04 09:28:57;;;;;;;2.88;1.52;;;;;;;;;;5112485;28;20083;-74
2022/04/04 09:31:24;;;;;;;1.70;1.02;;;;;;;;;;5111986;28;20028;-74
2022/04/04 09:33:50;;;;;;;2.28;1.40;;;;;;;;;;5105216;28;20064;-73
2022/04/04 09:36:16;;;;;;;2.50;1.33;;;;;;;;;;5110260;28;20034;-73
2022/04/04 09:38:56;;;;;;;2.92;1.10;;;;;;;;;;5111529;28;20047;-74
2022/04/04 09:41:24;;;;;;;7.78;1.30;;;;;;;;;;5111710;28;20031;-74
2022/04/04 09:43:54;;;;;;;5.72;1.75;;;;;;;;;;5109756;28;20510;-74
2022/04/04 09:46:21;;;;;;;3.33;1.33;;;;;;;;;;5111488;28;20088;-74
2022/04/04 09:49:07;;;;;;;5.05;1.30;;;;;;;;;;5111298;28;20085;-73
2022/04/04 09:51:45;;;;;;;3.78;1.52;;;;;;;;;;5110157;28;20028;-73
2022/04/04 09:54:13;;;;;;;2.58;1.35;;;;;;;;;;5111727;28;20023;-74
2022/04/04 09:56:39;;;;;;;3.70;1.40;;;;;;;;;;5111122;28;20376;-73
2022/04/04 09:59:05;;;;;;;2.92;1.40;;;;;;;;;;5111246;28;20086;-73
2022/04/04 10:01:33;;;;;;;2.40;1.42;;;;;;;;;;5111073;28;20026;-73
2022/04/04 10:04:00;;;;;;;2.90;1.35;;;;;;;;;;5110707;28;20126;-73
2022/04/04 10:06:31;;;;;;;4.00;1.65;;;;;;;;;;5114497;28;20020;-74
2022/04/04 10:08:58;;;;;;;3.85;1.45;;;;;;;;;;5115529;28;20184;-73
2022/04/04 10:11:24;;;;;;;6.35;1.67;;;;;;;;;;5114234;28;20028;-74
2022/04/04 10:13:54;;;;;;;3.13;1.23;;;;;;;;;;5115488;28;20362;-74
2022/04/04 10:16:22;;;;;;;3.13;1.17;;;;;;;;;;5113621;28;20612;-74
2022/04/04 10:18:48;;;;;;;2.58;1.15;;;;;;;;;;5114831;28;20028;-74
2022/04/04 10:21:15;;;;;;;4.93;1.35;;;;;;;;;;5114897;28;20071;-74
2022/04/04 10:23:41;;;;;;;2.88;1.35;;;;;;;;;;5115106;28;20066;-73
2022/04/04 10:26:08;;;;;;;2.58;1.10;;;;;;;;;;5115382;28;20434;-73
2022/04/04 10:28:35;;;;;;;4.10;1.42;;;;;;;;;;5113095;28;20032;-73
2022/04/04 10:31:23;;;;;;;3.17;1.52;;;;;;;;;;5115293;28;20038;-73
2022/04/04 10:33:53;;;;;;;2.53;1.38;;;;;;;;;;5115078;28;20034;-74
2022/04/04 10:36:23;;;;;;;2.97;1.67;;;;;;;;;;5114330;28;20035;-74
2022/04/04 10:38:51;;;;;;;5.30;1.55;;;;;;;;;;5109567;28;20035;-73
2022/04/04 10:41:18;;;;;;;2.83;1.25;;;;;;;;;;5114415;28;20024;-74
2022/04/04 10:43:46;;;;;;;3.85;1.20;;;;;;;;;;5114171;28;20038;-74
2022/04/04 10:46:13;;;;;;;7.90;1.85;;;;;;;;;;5112955;28;20548;-73
2022/04/04 10:48:40;;;;;;;3.40;1.60;;;;;;;;;;5114641;28;20035;-74
2022/04/04 10:51:11;;;;;;;5.00;1.27;;;;;;;;;;5104860;28;20035;-74
2022/04/04 10:53:40;;;;;;;2.90;1.35;;;;;;;;;;5094272;28;20396;-73
2022/04/04 10:56:06;;;;;;;6.35;1.65;;;;;;;;;;5111293;28;20102;-73
2022/04/04 10:58:32;;;;;;;1.92;0.90;;;;;;;;;;5111640;28;20512;-72
2022/04/04 11:01:16;;;;;;;2.67;1.20;;;;;;;;;;5114549;28;20082;-72
2022/04/04 11:03:42;;;;;;;4.38;1.00;;;;;;;;;;5114572;28;20383;-72
2022/04/04 11:09:15;;;;;;;3.03;1.10;;;;;;;;;;5115021;28;20522;-72
2022/04/04 11:11:45;;;;;;;4.80;1.27;;;;;;;;;;5114325;28;20063;-72
2022/04/04 11:14:19;;;;;;;4.20;1.20;;;;;;;;;;5113213;28;20031;-72
2022/04/04 11:17:08;;;;;;;3.30;1.20;;;;;;;;;;5113603;28;20487;-72
2022/04/04 11:19:47;;;;;;;5.72;1.20;;;;;;;;;;5105999;28;20040;-72
2022/04/04 11:22:17;;;;;;;3.25;1.27;;;;;;;;;;5114089;28;20068;-72
2022/04/04 11:24:43;;;;;;;6.28;1.20;;;;;;;;;;5114030;28;20064;-72
2022/04/04 11:27:10;;;;;;;4.38;1.30;;;;;;;;;;5113954;28;20028;-72
2022/04/04 11:29:38;;;;;;;3.67;1.25;;;;;;;;;;5113836;28;20049;-72
2022/04/04 11:32:05;;;;;;;2.80;1.20;;;;;;;;;;5114129;28;20027;-72
2022/04/04 11:34:31;;;;;;;2.90;1.40;;;;;;;;;;5113966;28;20094;-72
2022/04/04 11:36:58;;;;;;;3.75;1.30;;;;;;;;;;5114396;28;20169;-72
2022/04/04 11:39:24;;;;;;;3.92;1.00;;;;;;;;;;5112743;28;20064;-72
2022/04/04 11:41:54;;;;;;;4.25;1.40;;;;;;;;;;5113782;28;20023;-72
2022/04/04 11:44:32;;;;;;;7.50;1.27;;;;;;;;;;5113984;28;20032;-72
2022/04/04 11:47:01;;;;;;;2.33;0.90;;;;;;;;;;5114203;28;20152;-72
2022/04/04 11:49:32;;;;;;;3.50;0.90;;;;;;;;;;5112655;28;20050;-72
2022/04/04 11:52:04;;;;;;;4.70;1.23;;;;;;;;;;5114092;27;20071;-72
2022/04/04 11:54:38;;;;;;;3.17;1.08;;;;;;;;;;5113627;28;20024;-72
2022/04/04 11:57:05;;;;;;;3.83;1.08;;;;;;;;;;5112183;28;20097;-71
2022/04/04 11:59:34;;;;;;;1.95;0.80;;;;;;;;;;5113142;28;20085;-72
2022/04/04 12:02:02;;;;;;;2.20;1.00;;;;;;;;;;5112410;28;20027;-72
2022/04/04 12:04:30;;;;;;;3.03;1.15;;;;;;;;;;5113415;28;20033;-72
2022/04/04 12:06:56;;;;;;;2.38;0.90;;;;;;;;;;5112499;28;20016;-72
2022/04/04 12:09:29;;;;;;;3.38;1.00;;;;;;;;;;5112133;28;20032;-72
2022/04/04 12:12:02;;;;;;;2.20;0.98;;;;;;;;;;5112209;28;20533;-72
2022/04/04 12:14:35;;;;;;;2.15;0.90;;;;;;;;;;5113637;28;20028;-72
2022/04/04 12:17:02;;;;;;;2.03;1.00;;;;;;;;;;5113009;28;20047;-72
2022/04/04 12:19:28;;;;;;;1.42;0.90;;;;;;;;;;5111172;28;20135;-72
2022/04/04 12:21:55;;;;;;;2.67;0.85;;;;;;;;;;5109885;28;20023;-71
2022/04/04 12:27:09;;;;;;;3.05;1.08;;;;;;;;;;5108508;28;20073;-71
2022/04/04 12:29:45;;;;;;;2.05;1.00;;;;;;;;;;5098248;28;20055;-72
2022/04/04 12:32:20;;;;;;;2.30;0.93;;;;;;;;;;5092377;28;20066;-72
2022/04/04 12:35:06;;;;;;;2.40;0.90;;;;;;;;;;5092441;28;20020;-72
2022/04/04 12:37:40;;;;;;;4.30;1.10;;;;;;;;;;5095507;28;20495;-72
2022/04/04 12:40:32;;;;;;;2.97;0.82;;;;;;;;;;5106814;28;20024;-72
2022/04/04 12:43:12;;;;;;;2.88;1.15;;;;;;;;;;5108685;28;20166;-71
2022/04/04 12:45:47;;;;;;;2.92;1.00;;;;;;;;;;5111803;28;20099;-72
2022/04/04 12:48:13;;;;;;;1.45;0.82;;;;;;;;;;5094707;28;20028;-72
2022/04/04 12:50:41;;;;;;;1.90;0.80;;;;;;;;;;5094603;28;20044;-72
2022/04/04 12:53:08;;;;;;;2.40;1.23;;;;;;;;;;5103552;28;20115;-72
2022/04/04 12:55:36;;;;;;;3.45;1.02;;;;;;;;;;5102864;28;20473;-72
2022/04/04 12:58:25;;;;;;;2.53;1.15;;;;;;;;;;5110657;28;20050;-72
2022/04/04 13:00:51;;;;;;;3.05;1.00;;;;;;;;;;5102696;28;20082;-72
2022/04/04 13:03:19;;;;;;;4.28;0.70;;;;;;;;;;5092014;28;20028;-72
2022/04/04 13:05:49;;;;;;;3.13;1.05;;;;;;;;;;5103819;28;20484;-72
2022/04/04 13:08:24;;;;;;;1.80;0.90;;;;;;;;;;5110381;28;20027;-72
2022/04/04 13:11:02;;;;;;;3.60;1.00;;;;;;;;;;5098934;28;20509;-72
2022/04/04 13:13:29;;;;;;;6.60;0.85;;;;;;;;;;5109934;28;20035;-74
2022/04/04 13:15:55;;;;;;;4.53;0.98;;;;;;;;;;5110065;28;20031;-73
2022/04/04 13:18:21;;;;;;;2.70;1.00;;;;;;;;;;5092729;28;20039;-73
2022/04/04 13:20:47;;;;;;;1.13;0.70;;;;;;;;;;5096187;28;20108;-74
2022/04/04 13:23:13;;;;;;;2.50;0.77;;;;;;;;;;5109580;28;20124;-74
2022/04/04 13:25:40;;;;;;;3.15;1.05;;;;;;;;;;5110226;28;20130;-74
2022/04/04 13:28:09;;;;;;;3.60;0.95;;;;;;;;;;5110844;28;20020;-73
2022/04/04 13:30:36;;;;;;;3.15;1.00;;;;;;;;;;5111027;28;20041;-73
2022/04/04 13:33:02;;;;;;;2.45;0.90;;;;;;;;;;5111205;28;20474;-73
2022/04/04 13:35:28;;;;;;;1.85;0.90;;;;;;;;;;5111657;28;20034;-74
2022/04/04 13:37:54;;;;;;;2.33;0.98;;;;;;;;;;5095665;28;20407;-74
2022/04/04 13:40:20;;;;;;;2.45;0.75;;;;;;;;;;5108349;28;20035;-74
2022/04/04 13:42:46;;;;;;;2.40;0.93;;;;;;;;;;5110703;28;20016;-74
2022/04/04 13:45:12;;;;;;;3.10;1.05;;;;;;;;;;5103880;28;20519;-73
2022/04/04 13:47:39;;;;;;;2.00;0.80;;;;;;;;;;5110313;28;20023;-73
2022/04/04 13:50:05;;;;;;;1.73;0.90;;;;;;;;;;5109296;28;20032;-73
2022/04/04 13:52:34;;;;;;;5.72;1.17;;;;;;;;;;5112511;27;20698;-73
2022/04/04 13:55:00;;;;;;;3.05;0.90;;;;;;;;;;5113413;28;20051;-73
2022/04/04 13:57:26;;;;;;;2.15;0.80;;;;;;;;;;5113120;28;20027;-73
2022/04/04 13:59:52;;;;;;;1.73;0.68;;;;;;;;;;5131340;28;20100;-73
2022/04/04 14:02:20;;;;;;;2.03;0.70;;;;;;;;;;5112728;28;20473;-72
2022/04/04 14:04:46;;;;;;;3.97;0.80;;;;;;;;;;5112955;28;20436;-73
2022/04/04 14:07:12;;;;;;;1.67;0.75;;;;;;;;;;5113283;28;20076;-72
2022/04/04 14:09:38;;;;;;;1.48;0.63;;;;;;;;;;5131366;27;20039;-73
2022/04/04 14:12:05;;;;;;;2.33;0.73;;;;;;;;;;5131192;27;21493;-72
2022/04/04 14:14:31;;;;;;;1.63;0.55;;;;;;;;;;5130016;28;20034;-72
2022/04/04 14:16:58;;;;;;;2.65;1.00;;;;;;;;;;5131945;28;20015;-72
2022/04/04 14:19:24;;;;;;;1.92;0.60;;;;;;;;;;5111803;28;20046;-72
2022/04/04 14:21:50;;;;;;;1.65;0.80;;;;;;;;;;5109510;28;20530;-72
2022/04/04 14:24:17;;;;;;;2.10;0.85;;;;;;;;;;5101855;28;20027;-72
2022/04/04 14:26:44;;;;;;;3.42;0.70;;;;;;;;;;5111077;28;20387;-73
2022/04/04 14:29:10;;;;;;;1.08;0.77;;;;;;;;;;5129644;27;20428;-73
2022/04/04 14:31:36;;;;;;;2.28;0.70;;;;;;;;;;5131050;28;20031;-73
2022/04/04 14:34:02;;;;;;;2.08;0.75;;;;;;;;;;5130987;28;20022;-73
2022/04/04 14:36:29;;;;;;;1.40;0.75;;;;;;;;;;5112096;28;20031;-73
2022/04/04 14:38:55;;;;;;;1.48;0.60;;;;;;;;;;5129930;28;20026;-73
2022/04/04 14:41:21;;;;;;;1.38;0.60;;;;;;;;;;5131024;28;20055;-74
2022/04/04 14:43:48;;;;;;;2.35;0.70;;;;;;;;;;5111691;28;20080;-73
2022/04/04 14:46:14;;;;;;;1.48;0.50;;;;;;;;;;5129453;28;20270;-72
2022/04/04 14:48:44;;;;;;;1.02;0.47;;;;;;;;;;5129378;27;20036;-72
2022/04/04 14:51:16;;;;;;;2.22;0.60;;;;;;;;;;5125224;27;20035;-72
2022/04/04 14:53:43;;;;;;;1.67;0.75;;;;;;;;;;5133319;27;20372;-72
2022/04/04 14:56:11;;;;;;;3.85;0.80;;;;;;;;;;5134630;27;20038;-73